Seaboard Ranger — A8RF7 — position and weather

sailwx.info

Track history (hours):
 
Tides and Currents Weather Stations Pressure Air Temp Water Temp Dewpoint Dewpoint Depression Visibility Wind Speed Wind Dir Waves Ship Positions

Seaboard Ranger

Last reported at 2018-Jan-09 22:06 UTC. Time now 2018-Jan-20 02:52 UTC.
Position N 25°23' W 079°38'.
Warning: this ship's position is 10 days out of date.

Length 148 m; draft 6.6 m.

Type: Cargo ship. MMSI: 636091654.

Date/timePositionNaut miles runAvg speedWind from/ knotsBaromVisibWave heightAir tempDewpointWater temp
2018-Jan-09 22:06N 25°23' W 079°38'214.9
2018-Jan-09 21:59N 25°25' W 079°38'714.8
2018-Jan-09 21:30N 25°32' W 079°39'714.8
2018-Jan-09 21:01N 25°39' W 079°41'612.3
2018-Jan-09 20:30N 25°44' W 079°45'815.4
2018-Jan-09 20:00N 25°45' W 079°54'815.8
2018-Jan-09 19:30N 25°46' W 080°02'611.5
2018-Jan-09 19:00N 25°46' W 080°09'1 2.5
2018-Jan-09 18:29N 25°46' W 080°10'0 0.0
2018-Jan-09 17:59N 25°46' W 080°10'0 0.0
2018-Jan-09 17:28N 25°46' W 080°10'0 0.0
2018-Jan-09 16:58N 25°46' W 080°10'0 0.0
2018-Jan-09 16:28N 25°46' W 080°10'0 0.0
2018-Jan-09 15:58N 25°46' W 080°10'0 0.0
2018-Jan-09 15:28N 25°46' W 080°10'0 0.0
2018-Jan-09 15:00N 25°46' W 080°10'0 0.0
2018-Jan-09 14:30N 25°46' W 080°10'0 0.0
2018-Jan-09 14:00N 25°46' W 080°10'0 0.0
2018-Jan-09 13:30N 25°46' W 080°10'0 0.0
2018-Jan-09 13:00N 25°46' W 080°10'0 0.0
2018-Jan-09 12:29N 25°46' W 080°10'0 0.0
2018-Jan-09 11:59N 25°46' W 080°10'1 1.9
2018-Jan-09 11:30N 25°46' W 080°09'510.2
2018-Jan-09 11:01N 25°47' W 080°04'4 7.2
2018-Jan-09 10:30N 25°47' W 079°60'5 9.2
2018-Jan-09 10:01N 25°47' W 079°55'713.0
2018-Jan-09 09:30N 25°49' W 079°48'612.7
2018-Jan-09 09:01N 25°50' W 079°41'612.9
2018-Jan-09 08:30N 25°51' W 079°34'2111.1
2018-Jan-09 06:39N 26°11' W 079°26'310.8
2018-Jan-09 06:23N 26°14' W 079°26'  
2018-Jan-06 12:07N 39°47' W 073°52'314.9
2018-Jan-06 11:57N 39°49' W 073°52'3714.5
2018-Jan-06 09:25N 40°26' W 073°48'615.3
2018-Jan-06 09:00N 40°29' W 073°55'714.1
2018-Jan-06 08:31N 40°34' W 074°02'612.0
2018-Jan-06 08:01N 40°40' W 074°03'2 3.7
2018-Jan-06 07:30N 40°41' W 074°01'0 0.0
2018-Jan-06 07:01N 40°41' W 074°01'0 0.0
2018-Jan-06 06:30N 40°41' W 074°01'0 0.0
2018-Jan-06 06:00N 40°41' W 074°01'0 0.0
2018-Jan-06 05:30N 40°41' W 074°01'0 0.0
2018-Jan-06 04:59N 40°41' W 074°01'0 0.0
2018-Jan-06 04:29N 40°41' W 074°01'0 0.0
2018-Jan-06 03:59N 40°41' W 074°01'0 0.0
2018-Jan-06 03:29N 40°41' W 074°01'0 0.0
2018-Jan-06 02:59N 40°41' W 074°01'0 0.0
2018-Jan-06 02:28N 40°41' W 074°01'0 0.0
2018-Jan-06 01:58N 40°41' W 074°01'0 0.0
2018-Jan-06 01:28N 40°41' W 074°01'0 0.0
2018-Jan-06 00:58N 40°41' W 074°01'0 0.0
2018-Jan-06 00:28N 40°41' W 074°01'0 0.0
2018-Jan-06 00:00N 40°41' W 074°01'0 0.0
2018-Jan-05 23:30N 40°41' W 074°01'0 0.0
2018-Jan-05 23:00N 40°41' W 074°01'0 0.0
2018-Jan-05 22:30N 40°41' W 074°01'0 0.0
2018-Jan-05 22:00N 40°41' W 074°01'0 0.0
2018-Jan-05 21:29N 40°41' W 074°01'0 0.0
2018-Jan-05 20:59N 40°41' W 074°01'0 0.0
2018-Jan-05 20:29N 40°41' W 074°01'0 0.0
2018-Jan-05 19:59N 40°41' W 074°01'0 0.0
2018-Jan-05 19:28N 40°41' W 074°01'0 0.0
2018-Jan-05 18:58N 40°41' W 074°01'0 0.0
2018-Jan-05 18:28N 40°41' W 074°01'0 0.0
2018-Jan-05 17:49N 40°41' W 074°01'0 0.0
2018-Jan-05 17:28N 40°41' W 074°01'0 0.0
2018-Jan-05 17:00N 40°41' W 074°01'0 0.0
2018-Jan-05 16:30N 40°41' W 074°01'0 0.0
2018-Jan-05 16:00N 40°41' W 074°01'0 0.0
2018-Jan-05 15:30N 40°41' W 074°01'0 0.0
2018-Jan-05 14:59N 40°41' W 074°01'0 0.0
2018-Jan-05 14:29N 40°41' W 074°01'0 0.0
2018-Jan-05 13:59N 40°41' W 074°01'0 0.0
2018-Jan-05 13:29N 40°41' W 074°01'0 0.0
2018-Jan-05 12:59N 40°41' W 074°01'0 0.0
2018-Jan-05 12:28N 40°41' W 074°01'0 0.0
2018-Jan-05 11:58N 40°41' W 074°01'0 0.0
2018-Jan-05 11:28N 40°41' W 074°01'0 0.0
2018-Jan-05 10:58N 40°41' W 074°01'0 0.0
2018-Jan-05 10:31N 40°41' W 074°01'0 0.0
2018-Jan-05 10:00N 40°41' W 074°01'0 0.0
2018-Jan-05 09:30N 40°41' W 074°01'0 0.0
2018-Jan-05 09:00N 40°41' W 074°01'0 0.0
2018-Jan-05 08:30N 40°41' W 074°01'0 0.0
2018-Jan-05 07:59N 40°41' W 074°01'0 0.0
2018-Jan-05 07:29N 40°41' W 074°01'0 0.0
2018-Jan-05 06:59N 40°41' W 074°01'0 0.0
2018-Jan-05 06:29N 40°41' W 074°01'0 0.0
2018-Jan-05 05:56N 40°41' W 074°01'0 0.0
2018-Jan-05 05:28N 40°41' W 074°01'0 0.0
2018-Jan-05 04:58N 40°41' W 074°01'0 0.0
2018-Jan-05 04:28N 40°41' W 074°01'0 0.0
2018-Jan-05 03:58N 40°41' W 074°01'0 0.0
2018-Jan-05 03:31N 40°41' W 074°01'0 0.0
2018-Jan-05 03:00N 40°41' W 074°01'0 0.0
2018-Jan-05 02:27N 40°41' W 074°01'0 0.0
2018-Jan-05 02:00N 40°41' W 074°01'0 0.0
2018-Jan-05 01:30N 40°41' W 074°01'0 0.0
2018-Jan-05 00:59N 40°41' W 074°01'0 0.0
2018-Jan-05 00:29N 40°41' W 074°01'0 0.0
2018-Jan-04 23:56N 40°41' W 074°01'0 0.0
2018-Jan-04 23:29N 40°41' W 074°01'0 0.0
2018-Jan-04 22:59N 40°41' W 074°01'0 0.0
2018-Jan-04 22:25N 40°41' W 074°01'0 0.0
2018-Jan-04 21:58N 40°41' W 074°01'0 0.0
2018-Jan-04 21:28N 40°41' W 074°01'0 0.0
2018-Jan-04 20:58N 40°41' W 074°01'0 0.0
2018-Jan-04 20:28N 40°41' W 074°01'0 0.0
2018-Jan-04 20:00N 40°41' W 074°01'0 0.0
2018-Jan-04 19:30N 40°41' W 074°01'0 0.0
2018-Jan-04 19:00N 40°41' W 074°01'0 0.0
2018-Jan-04 18:30N 40°41' W 074°01'0 0.0
2018-Jan-04 17:59N 40°41' W 074°01'0 0.0
2018-Jan-04 17:26N 40°41' W 074°01'0 0.0
2018-Jan-04 16:59N 40°41' W 074°01'0 0.0
2018-Jan-04 16:29N 40°41' W 074°01'0 0.0
2018-Jan-04 15:59N 40°41' W 074°01'0 0.0
2018-Jan-04 15:28N 40°41' W 074°01'0 0.0
2018-Jan-04 14:58N 40°41' W 074°01'0 0.0
2018-Jan-04 14:28N 40°41' W 074°01'0 0.0
2018-Jan-04 13:58N 40°41' W 074°01'0 0.0
2018-Jan-04 13:27N 40°41' W 074°01'0 0.0
2018-Jan-04 13:00N 40°41' W 074°01'0 0.0
2018-Jan-04 12:30N 40°41' W 074°01'0 0.0
2018-Jan-04 12:00N 40°41' W 074°01'0 0.0
2018-Jan-04 11:30N 40°41' W 074°01'0 0.0
2018-Jan-04 10:56N 40°41' W 074°01'0 0.0
2018-Jan-04 10:29N 40°41' W 074°01'0 0.0
2018-Jan-04 09:59N 40°41' W 074°01'0 0.0
2018-Jan-04 09:29N 40°41' W 074°01'0 0.0
2018-Jan-04 08:59N 40°41' W 074°01'0 0.2
2018-Jan-04 08:28N 40°41' W 074°01'0 0.1
2018-Jan-04 07:58N 40°41' W 074°01'0 0.0
2018-Jan-04 07:28N 40°41' W 074°01'0 0.0
2018-Jan-04 06:58N 40°41' W 074°01'0 0.2
2018-Jan-04 06:30N 40°41' W 074°01'0 0.8
2018-Jan-04 06:00N 40°41' W 074°01'3 5.5
2018-Jan-04 05:30N 40°39' W 074°03'4 8.1
2018-Jan-04 05:00N 40°35' W 074°02'2 4.8
2018-Jan-04 04:31N 40°32' W 074°01'3 4.8
2018-Jan-04 03:59N 40°31' W 073°59'4 7.9
2018-Jan-04 03:30N 40°29' W 073°54'13 6.5
2018-Jan-04 01:28N 40°17' W 073°46'5 7.1
2018-Jan-04 00:45N 40°12' W 073°45'3 7.2
2018-Jan-04 00:16N 40°09' W 073°45'3 8.7
2018-Jan-03 23:56N 40°06' W 073°44'1713.7
2018-Jan-03 22:41N 39°49' W 073°42'513.8
2018-Jan-03 22:21N 39°44' W 073°41'513.5
2018-Jan-03 21:57N 39°39' W 073°41'714.0
2018-Jan-03 21:26N 39°32' W 073°41'  
Track history (hours):
 
Tides and Currents Weather Stations Pressure Air Temp Water Temp Dewpoint Dewpoint Depression Visibility Wind Speed Wind Dir Waves Ship Positions

Seaboard Ranger

Last reported at 2018-Jan-09 22:06 UTC. Time now 2018-Jan-20 02:52 UTC.
Position N 25°23' W 079°38'.
Warning: this ship's position is 10 days out of date.

Length 148 m; draft 6.6 m.

Type: Cargo ship. MMSI: 636091654.

Date/timePositionNaut miles runAvg speedWind from/ knotsBaromVisibWave heightAir tempDewpointWater temp
2018-Jan-09 22:06N 25°23' W 079°38'214.9
2018-Jan-09 21:59N 25°25' W 079°38'714.8
2018-Jan-09 21:30N 25°32' W 079°39'714.8
2018-Jan-09 21:01N 25°39' W 079°41'612.3
2018-Jan-09 20:30N 25°44' W 079°45'815.4
2018-Jan-09 20:00N 25°45' W 079°54'815.8
2018-Jan-09 19:30N 25°46' W 080°02'611.5
2018-Jan-09 19:00N 25°46' W 080°09'1 2.5
2018-Jan-09 18:29N 25°46' W 080°10'0 0.0
2018-Jan-09 17:59N 25°46' W 080°10'0 0.0
2018-Jan-09 17:28N 25°46' W 080°10'0 0.0
2018-Jan-09 16:58N 25°46' W 080°10'0 0.0
2018-Jan-09 16:28N 25°46' W 080°10'0 0.0
2018-Jan-09 15:58N 25°46' W 080°10'0 0.0
2018-Jan-09 15:28N 25°46' W 080°10'0 0.0
2018-Jan-09 15:00N 25°46' W 080°10'0 0.0
2018-Jan-09 14:30N 25°46' W 080°10'0 0.0
2018-Jan-09 14:00N 25°46' W 080°10'0 0.0
2018-Jan-09 13:30N 25°46' W 080°10'0 0.0
2018-Jan-09 13:00N 25°46' W 080°10'0 0.0
2018-Jan-09 12:29N 25°46' W 080°10'0 0.0
2018-Jan-09 11:59N 25°46' W 080°10'1 1.9
2018-Jan-09 11:30N 25°46' W 080°09'510.2
2018-Jan-09 11:01N 25°47' W 080°04'4 7.2
2018-Jan-09 10:30N 25°47' W 079°60'5 9.2
2018-Jan-09 10:01N 25°47' W 079°55'713.0
2018-Jan-09 09:30N 25°49' W 079°48'612.7
2018-Jan-09 09:01N 25°50' W 079°41'612.9
2018-Jan-09 08:30N 25°51' W 079°34'2111.1
2018-Jan-09 06:39N 26°11' W 079°26'310.8
2018-Jan-09 06:23N 26°14' W 079°26'  
2018-Jan-06 12:07N 39°47' W 073°52'314.9
2018-Jan-06 11:57N 39°49' W 073°52'3714.5
2018-Jan-06 09:25N 40°26' W 073°48'615.3
2018-Jan-06 09:00N 40°29' W 073°55'714.1
2018-Jan-06 08:31N 40°34' W 074°02'612.0
2018-Jan-06 08:01N 40°40' W 074°03'2 3.7
2018-Jan-06 07:30N 40°41' W 074°01'0 0.0
2018-Jan-06 07:01N 40°41' W 074°01'0 0.0
2018-Jan-06 06:30N 40°41' W 074°01'0 0.0
2018-Jan-06 06:00N 40°41' W 074°01'0 0.0
2018-Jan-06 05:30N 40°41' W 074°01'0 0.0
2018-Jan-06 04:59N 40°41' W 074°01'0 0.0
2018-Jan-06 04:29N 40°41' W 074°01'0 0.0
2018-Jan-06 03:59N 40°41' W 074°01'0 0.0
2018-Jan-06 03:29N 40°41' W 074°01'0 0.0
2018-Jan-06 02:59N 40°41' W 074°01'0 0.0
2018-Jan-06 02:28N 40°41' W 074°01'0 0.0
2018-Jan-06 01:58N 40°41' W 074°01'0 0.0
2018-Jan-06 01:28N 40°41' W 074°01'0 0.0
2018-Jan-06 00:58N 40°41' W 074°01'0 0.0
2018-Jan-06 00:28N 40°41' W 074°01'0 0.0
2018-Jan-06 00:00N 40°41' W 074°01'0 0.0
2018-Jan-05 23:30N 40°41' W 074°01'0 0.0
2018-Jan-05 23:00N 40°41' W 074°01'0 0.0
2018-Jan-05 22:30N 40°41' W 074°01'0 0.0
2018-Jan-05 22:00N 40°41' W 074°01'0 0.0
2018-Jan-05 21:29N 40°41' W 074°01'0 0.0
2018-Jan-05 20:59N 40°41' W 074°01'0 0.0
2018-Jan-05 20:29N 40°41' W 074°01'0 0.0
2018-Jan-05 19:59N 40°41' W 074°01'0 0.0
2018-Jan-05 19:28N 40°41' W 074°01'0 0.0
2018-Jan-05 18:58N 40°41' W 074°01'0 0.0
2018-Jan-05 18:28N 40°41' W 074°01'0 0.0
2018-Jan-05 17:49N 40°41' W 074°01'0 0.0
2018-Jan-05 17:28N 40°41' W 074°01'0 0.0
2018-Jan-05 17:00N 40°41' W 074°01'0 0.0
2018-Jan-05 16:30N 40°41' W 074°01'0 0.0
2018-Jan-05 16:00N 40°41' W 074°01'0 0.0
2018-Jan-05 15:30N 40°41' W 074°01'0 0.0
2018-Jan-05 14:59N 40°41' W 074°01'0 0.0
2018-Jan-05 14:29N 40°41' W 074°01'0 0.0
2018-Jan-05 13:59N 40°41' W 074°01'0 0.0
2018-Jan-05 13:29N 40°41' W 074°01'0 0.0
2018-Jan-05 12:59N 40°41' W 074°01'0 0.0
2018-Jan-05 12:28N 40°41' W 074°01'0 0.0
2018-Jan-05 11:58N 40°41' W 074°01'0 0.0
2018-Jan-05 11:28N 40°41' W 074°01'0 0.0
2018-Jan-05 10:58N 40°41' W 074°01'0 0.0
2018-Jan-05 10:31N 40°41' W 074°01'0 0.0
2018-Jan-05 10:00N 40°41' W 074°01'0 0.0
2018-Jan-05 09:30N 40°41' W 074°01'0 0.0
2018-Jan-05 09:00N 40°41' W 074°01'0 0.0
2018-Jan-05 08:30N 40°41' W 074°01'0 0.0
2018-Jan-05 07:59N 40°41' W 074°01'0 0.0
2018-Jan-05 07:29N 40°41' W 074°01'0 0.0
2018-Jan-05 06:59N 40°41' W 074°01'0 0.0
2018-Jan-05 06:29N 40°41' W 074°01'0 0.0
2018-Jan-05 05:56N 40°41' W 074°01'0 0.0
2018-Jan-05 05:28N 40°41' W 074°01'0 0.0
2018-Jan-05 04:58N 40°41' W 074°01'0 0.0
2018-Jan-05 04:28N 40°41' W 074°01'0 0.0
2018-Jan-05 03:58N 40°41' W 074°01'0 0.0
2018-Jan-05 03:31N 40°41' W 074°01'0 0.0
2018-Jan-05 03:00N 40°41' W 074°01'0 0.0
2018-Jan-05 02:27N 40°41' W 074°01'0 0.0
2018-Jan-05 02:00N 40°41' W 074°01'0 0.0
2018-Jan-05 01:30N 40°41' W 074°01'0 0.0
2018-Jan-05 00:59N 40°41' W 074°01'0 0.0
2018-Jan-05 00:29N 40°41' W 074°01'0 0.0
2018-Jan-04 23:56N 40°41' W 074°01'0 0.0
2018-Jan-04 23:29N 40°41' W 074°01'0 0.0
2018-Jan-04 22:59N 40°41' W 074°01'0 0.0
2018-Jan-04 22:25N 40°41' W 074°01'0 0.0
2018-Jan-04 21:58N 40°41' W 074°01'0 0.0
2018-Jan-04 21:28N 40°41' W 074°01'0 0.0
2018-Jan-04 20:58N 40°41' W 074°01'0 0.0
2018-Jan-04 20:28N 40°41' W 074°01'0 0.0
2018-Jan-04 20:00N 40°41' W 074°01'0 0.0
2018-Jan-04 19:30N 40°41' W 074°01'0 0.0
2018-Jan-04 19:00N 40°41' W 074°01'0 0.0
2018-Jan-04 18:30N 40°41' W 074°01'0 0.0
2018-Jan-04 17:59N 40°41' W 074°01'0 0.0
2018-Jan-04 17:26N 40°41' W 074°01'0 0.0
2018-Jan-04 16:59N 40°41' W 074°01'0 0.0
2018-Jan-04 16:29N 40°41' W 074°01'0 0.0
2018-Jan-04 15:59N 40°41' W 074°01'0 0.0
2018-Jan-04 15:28N 40°41' W 074°01'0 0.0
2018-Jan-04 14:58N 40°41' W 074°01'0 0.0
2018-Jan-04 14:28N 40°41' W 074°01'0 0.0
2018-Jan-04 13:58N 40°41' W 074°01'0 0.0
2018-Jan-04 13:27N 40°41' W 074°01'0 0.0
2018-Jan-04 13:00N 40°41' W 074°01'0 0.0
2018-Jan-04 12:30N 40°41' W 074°01'0 0.0
2018-Jan-04 12:00N 40°41' W 074°01'0 0.0
2018-Jan-04 11:30N 40°41' W 074°01'0 0.0
2018-Jan-04 10:56N 40°41' W 074°01'0 0.0
2018-Jan-04 10:29N 40°41' W 074°01'0 0.0
2018-Jan-04 09:59N 40°41' W 074°01'0 0.0
2018-Jan-04 09:29N 40°41' W 074°01'0 0.0
2018-Jan-04 08:59N 40°41' W 074°01'0 0.2
2018-Jan-04 08:28N 40°41' W 074°01'0 0.1
2018-Jan-04 07:58N 40°41' W 074°01'0 0.0
2018-Jan-04 07:28N 40°41' W 074°01'0 0.0
2018-Jan-04 06:58N 40°41' W 074°01'0 0.2
2018-Jan-04 06:30N 40°41' W 074°01'0 0.8
2018-Jan-04 06:00N 40°41' W 074°01'3 5.5
2018-Jan-04 05:30N 40°39' W 074°03'4 8.1
2018-Jan-04 05:00N 40°35' W 074°02'2 4.8
2018-Jan-04 04:31N 40°32' W 074°01'3 4.8
2018-Jan-04 03:59N 40°31' W 073°59'4 7.9
2018-Jan-04 03:30N 40°29' W 073°54'13 6.5
2018-Jan-04 01:28N 40°17' W 073°46'5 7.1
2018-Jan-04 00:45N 40°12' W 073°45'3 7.2
2018-Jan-04 00:16N 40°09' W 073°45'3 8.7
2018-Jan-03 23:56N 40°06' W 073°44'1713.7
2018-Jan-03 22:41N 39°49' W 073°42'513.8
2018-Jan-03 22:21N 39°44' W 073°41'513.5
2018-Jan-03 21:57N 39°39' W 073°41'714.0
2018-Jan-03 21:26N 39°32' W 073°41'  

Dump ship's entire track history